createdAt,value
2023-03-12T00:00:10.722Z,98626.88
2023-03-12T00:02:37.874Z,98638.19
2023-03-12T00:05:05.955Z,98644.34
2023-03-12T00:07:33.105Z,98646.78
2023-03-12T00:10:00.238Z,98659.78
2023-03-12T00:12:27.305Z,98672.81
2023-03-12T00:14:54.701Z,98678.00
2023-03-12T00:17:21.759Z,98690.84
2023-03-12T00:19:53.322Z,98700.63
2023-03-12T00:22:23.095Z,98710.88
2023-03-12T00:24:55.980Z,98713.09
2023-03-12T00:27:24.743Z,98717.41
2023-03-12T00:29:52.299Z,98707.78
2023-03-12T00:32:19.641Z,98729.34
2023-03-12T00:34:52.696Z,98737.97
2023-03-12T00:37:20.392Z,98753.59
2023-03-12T00:39:47.545Z,98764.75
2023-03-12T00:42:15.047Z,98773.22
2023-03-12T00:44:43.548Z,98802.06
2023-03-12T00:47:11.824Z,98810.75
2023-03-12T00:49:39.217Z,98833.50
2023-03-12T00:52:06.876Z,98839.75
2023-03-12T00:54:34.047Z,98855.25
2023-03-12T00:57:01.751Z,98871.78
2023-03-12T00:59:29.070Z,98883.91
2023-03-12T01:01:56.188Z,98897.69
2023-03-12T01:04:23.744Z,98908.13
2023-03-12T01:06:50.995Z,98928.66
2023-03-12T01:09:18.245Z,98939.91
2023-03-12T01:11:45.367Z,98958.13
2023-03-12T01:14:12.485Z,98963.31
2023-03-12T01:16:39.679Z,98976.63
2023-03-12T01:19:06.800Z,98984.94
2023-03-12T01:21:33.899Z,99000.31
2023-03-12T01:24:00.996Z,99008.50
2023-03-12T01:26:28.111Z,99023.22
2023-03-12T01:28:55.172Z,99036.72
2023-03-12T01:31:22.324Z,99044.50
2023-03-12T01:33:52.526Z,99047.91
2023-03-12T01:36:22.562Z,99051.44
2023-03-12T01:38:52.873Z,99059.25
2023-03-12T01:41:21.149Z,99063.44
2023-03-12T01:43:48.243Z,99086.16
2023-03-12T01:46:30.605Z,99098.63
2023-03-12T01:49:00.436Z,99107.84
2023-03-12T01:51:54.932Z,99108.59
2023-03-12T01:54:32.290Z,99119.13
2023-03-12T01:57:00.396Z,99132.19
2023-03-12T01:59:36.194Z,99126.63
2023-03-12T02:02:05.612Z,99124.03
2023-03-12T02:04:33.696Z,99131.03
2023-03-12T02:07:09.116Z,99143.75
2023-03-12T02:09:44.341Z,99160.06
2023-03-12T02:12:12.749Z,99161.91
2023-03-12T02:14:40.301Z,99165.38
2023-03-12T02:17:09.079Z,99193.69
2023-03-12T02:19:52.912Z,99200.28
2023-03-12T02:22:22.383Z,99208.16
2023-03-12T02:25:04.091Z,99202.88
2023-03-12T02:27:36.574Z,99218.31
2023-03-12T02:30:06.951Z,99229.72
2023-03-12T02:32:38.918Z,99241.97
2023-03-12T02:35:07.665Z,99250.63
2023-03-12T02:37:34.952Z,99256.63
2023-03-12T02:40:42.622Z,99269.06
2023-03-12T02:43:11.016Z,99291.16
2023-03-12T02:45:39.295Z,99291.22
2023-03-12T02:48:09.286Z,99298.22
2023-03-12T02:50:36.503Z,99300.16
2023-03-12T02:53:03.616Z,99299.28
2023-03-12T02:55:30.809Z,99306.53
2023-03-12T02:57:58.134Z,99312.66
2023-03-12T03:00:25.424Z,99308.41
2023-03-12T03:02:52.466Z,99323.47
2023-03-12T03:05:20.593Z,99319.28
2023-03-12T03:07:47.837Z,99316.94
2023-03-12T03:10:17.628Z,99329.19
2023-03-12T03:12:44.783Z,99334.50
2023-03-12T03:15:12.678Z,99335.72
2023-03-12T03:17:39.907Z,99335.72
2023-03-12T03:20:11.297Z,99340.97
2023-03-12T03:22:39.930Z,99342.91
2023-03-12T03:25:09.495Z,99337.94
2023-03-12T03:27:49.924Z,99333.69
2023-03-12T03:30:17.567Z,99347.59
2023-03-12T03:32:44.896Z,99345.00
2023-03-12T03:35:12.451Z,99348.81
2023-03-12T03:37:40.033Z,99352.34
2023-03-12T03:40:11.904Z,99355.22
2023-03-12T03:42:40.208Z,99349.88
2023-03-12T03:45:08.812Z,99351.63
2023-03-12T03:47:36.829Z,99358.66
2023-03-12T03:50:06.492Z,99372.00
2023-03-12T03:52:34.260Z,99371.78
2023-03-12T03:55:01.572Z,99380.56
2023-03-12T03:57:29.680Z,99360.63
2023-03-12T04:00:00.402Z,99369.41
2023-03-12T04:02:29.465Z,99361.50
2023-03-12T04:05:00.001Z,99366.66
2023-03-12T04:07:28.508Z,99376.97
2023-03-12T04:09:57.810Z,99379.44
2023-03-12T04:12:26.210Z,99395.09
2023-03-12T04:14:53.700Z,99394.19
2023-03-12T04:17:20.895Z,99397.91
2023-03-12T04:19:48.294Z,99402.31
2023-03-12T04:22:15.466Z,99411.94
2023-03-12T04:24:42.683Z,99428.47
2023-03-12T04:27:09.804Z,99445.09
2023-03-12T04:29:39.254Z,99457.53
2023-03-12T04:32:07.211Z,99459.00
2023-03-12T04:34:34.824Z,99464.91
2023-03-12T04:37:03.146Z,99451.09
2023-03-12T04:39:30.542Z,99461.50
2023-03-12T04:41:57.786Z,99466.19
2023-03-12T04:44:24.841Z,99471.16
2023-03-12T04:46:51.989Z,99463.38
2023-03-12T04:49:19.446Z,99474.19
2023-03-12T04:51:46.722Z,99472.59
2023-03-12T04:54:13.859Z,99474.06
2023-03-12T04:56:41.187Z,99485.31
2023-03-12T04:59:09.431Z,99497.13
2023-03-12T05:01:37.731Z,99494.41
2023-03-12T05:04:05.973Z,99503.31
2023-03-12T05:06:34.053Z,99518.44
2023-03-12T05:09:01.182Z,99524.25
2023-03-12T05:11:28.419Z,99534.75
2023-03-12T05:13:56.031Z,99543.78
2023-03-12T05:16:23.260Z,99535.00
2023-03-12T05:18:50.695Z,99538.78
2023-03-12T05:21:20.580Z,99536.81
2023-03-12T05:23:48.404Z,99537.59
2023-03-12T05:26:24.300Z,99545.72
2023-03-12T05:28:52.401Z,99546.50
2023-03-12T05:31:20.077Z,99552.69
2023-03-12T05:33:47.844Z,99549.78
2023-03-12T05:36:16.104Z,99530.69
2023-03-12T05:38:43.624Z,99546.50
2023-03-12T05:41:26.260Z,99554.34
2023-03-12T05:43:56.477Z,99563.63
2023-03-12T05:46:26.089Z,99567.09
2023-03-12T05:48:53.715Z,99557.31
2023-03-12T05:51:22.925Z,99557.31
2023-03-12T05:53:50.553Z,99569.53
2023-03-12T05:56:19.135Z,99561.72
2023-03-12T05:58:52.484Z,99568.00
2023-03-12T06:01:28.184Z,99580.44
2023-03-12T06:03:55.613Z,99593.56
2023-03-12T06:06:23.435Z,99585.59
2023-03-12T06:08:51.859Z,99595.09
2023-03-12T06:11:19.167Z,99602.00
2023-03-12T06:13:46.255Z,99591.59
2023-03-12T06:16:26.527Z,99593.63
2023-03-12T06:18:59.803Z,99613.63
2023-03-12T06:21:30.802Z,99611.72
2023-03-12T06:23:59.081Z,99615.47
2023-03-12T06:26:27.415Z,99611.66
2023-03-12T06:28:54.912Z,99619.75
2023-03-12T06:31:57.109Z,99626.91
2023-03-12T06:34:24.360Z,99634.72
2023-03-12T06:36:57.496Z,99652.53
2023-03-12T06:39:24.602Z,99670.78
2023-03-12T06:41:52.097Z,99665.72
2023-03-12T06:44:19.785Z,99666.66
2023-03-12T06:46:47.236Z,99665.66
2023-03-12T06:49:15.143Z,99671.03
2023-03-12T06:51:42.615Z,99658.69
2023-03-12T06:54:09.905Z,99659.88
2023-03-12T06:56:37.134Z,99657.28
2023-03-12T06:59:04.727Z,99679.84
2023-03-12T07:01:31.969Z,99673.00
2023-03-12T07:03:59.283Z,99672.22
2023-03-12T07:06:26.676Z,99677.59
2023-03-12T07:08:53.684Z,99683.69
2023-03-12T07:11:21.076Z,99684.75
2023-03-12T07:13:48.829Z,99700.63
2023-03-12T07:16:16.040Z,99704.94
2023-03-12T07:18:43.176Z,99711.81
2023-03-12T07:21:10.156Z,99719.75
2023-03-12T07:23:37.686Z,99712.56
2023-03-12T07:26:06.273Z,99724.25
2023-03-12T07:28:33.822Z,99723.38
2023-03-12T07:31:05.253Z,99724.91
2023-03-12T07:33:32.912Z,99736.13
2023-03-12T07:36:00.492Z,99730.16
2023-03-12T07:38:27.795Z,99745.09
2023-03-12T07:40:57.745Z,99750.13
2023-03-12T07:43:25.814Z,99746.44
2023-03-12T07:45:53.307Z,99751.69
2023-03-12T07:48:20.679Z,99764.75
2023-03-12T07:50:48.634Z,99780.22
2023-03-12T07:53:16.209Z,99793.53
2023-03-12T07:55:46.584Z,99806.34
2023-03-12T07:58:15.861Z,99794.38
2023-03-12T08:00:43.592Z,99799.06
2023-03-12T08:03:11.027Z,99809.28
2023-03-12T08:05:38.369Z,99817.28
2023-03-12T08:08:09.396Z,99802.25
2023-03-12T08:10:37.657Z,99796.00
2023-03-12T08:13:04.929Z,99784.00
2023-03-12T08:15:32.180Z,99785.84
2023-03-12T08:17:59.832Z,99776.38
2023-03-12T08:20:27.115Z,99765.91
2023-03-12T08:22:54.571Z,99755.22
2023-03-12T08:25:21.861Z,99744.63
2023-03-12T08:27:49.073Z,99695.06
2023-03-12T08:30:19.193Z,99646.06
2023-03-12T08:32:46.766Z,99574.31
2023-03-12T08:35:14.266Z,99517.28
2023-03-12T08:37:41.727Z,99479.69
2023-03-12T08:40:13.425Z,99447.91
2023-03-12T08:42:43.103Z,99430.38
2023-03-12T08:45:12.105Z,99394.88
2023-03-12T08:47:42.037Z,99373.47
2023-03-12T08:50:13.021Z,99377.84
2023-03-12T08:52:40.945Z,99358.47
2023-03-12T08:55:08.799Z,99349.47
2023-03-12T08:57:36.046Z,99331.94
2023-03-12T09:00:11.592Z,99317.25
2023-03-12T09:02:39.379Z,99315.81
2023-03-12T09:05:07.471Z,99305.03
2023-03-12T09:07:34.794Z,99302.03
2023-03-12T09:10:01.814Z,99306.69
2023-03-12T09:12:28.850Z,99299.72
2023-03-12T09:15:03.518Z,99301.69
2023-03-12T09:17:31.430Z,99306.00
2023-03-12T09:19:59.044Z,99299.44
2023-03-12T09:22:26.564Z,99318.84
2023-03-12T09:24:53.793Z,99341.00
2023-03-12T09:27:23.489Z,99350.81
2023-03-12T09:30:00.835Z,99388.13
2023-03-12T09:32:30.404Z,99400.22
2023-03-12T09:34:58.221Z,99401.53
2023-03-12T09:37:25.948Z,99418.03
2023-03-12T09:39:54.218Z,99421.47
2023-03-12T09:43:11.256Z,99455.19
2023-03-12T09:45:43.956Z,99480.78
2023-03-12T09:48:27.568Z,99516.34
2023-03-12T09:50:55.193Z,99519.78
2023-03-12T09:53:35.050Z,99547.50
2023-03-12T09:56:10.296Z,99557.91
2023-03-12T09:58:39.292Z,99578.53
2023-03-12T10:01:12.485Z,99605.09
2023-03-12T10:04:01.205Z,99638.34
2023-03-12T10:07:13.680Z,99662.50
2023-03-12T10:10:23.807Z,99700.06
2023-03-12T10:13:13.022Z,99727.31
2023-03-12T10:16:09.849Z,99745.09
2023-03-12T10:18:52.389Z,99773.53
2023-03-12T10:21:47.464Z,99799.94
2023-03-12T10:24:33.020Z,99828.41
2023-03-12T10:27:02.743Z,99837.94
2023-03-12T10:29:42.062Z,99859.16
2023-03-12T10:32:11.019Z,99873.38
2023-03-12T10:35:10.113Z,99881.41
2023-03-12T10:37:55.506Z,99873.59
2023-03-12T10:40:26.461Z,99886.94
2023-03-12T10:42:54.664Z,99902.69
2023-03-12T10:45:39.269Z,99916.25
2023-03-12T10:48:11.978Z,99925.13
2023-03-12T10:50:41.392Z,99912.88
2023-03-12T10:53:29.931Z,99920.34
2023-03-12T10:56:01.566Z,99910.25
2023-03-12T10:58:41.238Z,99926.34
2023-03-12T11:01:29.645Z,99918.81
2023-03-12T11:04:30.218Z,99922.63
2023-03-12T11:07:32.034Z,99942.31
2023-03-12T11:10:08.068Z,99951.50
2023-03-12T11:12:38.308Z,99957.72
2023-03-12T11:15:38.702Z,99969.75
2023-03-12T11:18:22.855Z,99979.19
2023-03-12T11:20:53.158Z,99954.53
2023-03-12T11:23:43.288Z,99966.50
2023-03-12T11:26:23.428Z,99953.44
2023-03-12T11:29:04.754Z,99974.97
2023-03-12T11:31:41.873Z,99963.69
2023-03-12T11:34:21.968Z,99914.25
2023-03-12T11:37:10.675Z,99904.59
2023-03-12T11:40:18.923Z,99884.44
2023-03-12T11:43:01.332Z,99872.09
2023-03-12T11:46:11.778Z,99871.25
2023-03-12T11:48:59.229Z,99850.03
2023-03-12T11:51:55.846Z,99828.72
2023-03-12T11:54:54.501Z,99783.69
2023-03-12T11:57:31.033Z,99742.28
2023-03-12T12:00:21.693Z,99738.72
2023-03-12T12:02:58.986Z,99699.84
2023-03-12T12:05:31.862Z,99662.78
2023-03-12T12:08:42.646Z,99660.00
2023-03-12T12:12:05.340Z,99679.28
2023-03-12T12:15:08.398Z,99626.38
2023-03-12T12:18:21.494Z,99602.41
2023-03-12T12:21:06.194Z,99575.94
2023-03-12T12:24:05.503Z,99578.56
2023-03-12T12:27:00.165Z,99571.19
2023-03-12T12:30:05.014Z,99547.03
2023-03-12T12:33:09.696Z,99536.63
2023-03-12T12:35:43.242Z,99495.28
2023-03-12T12:38:18.667Z,99489.28
2023-03-12T12:40:54.768Z,99444.66
2023-03-12T12:43:42.443Z,99452.38
2023-03-12T12:46:30.645Z,99481.75
2023-03-12T12:49:34.262Z,99366.44
2023-03-12T12:52:06.949Z,99377.94
2023-03-12T12:55:16.916Z,99377.00
2023-03-12T12:57:57.730Z,99323.41
2023-03-12T13:00:37.173Z,99290.97
2023-03-12T13:03:04.452Z,99257.41
2023-03-12T13:05:37.532Z,99207.34
2023-03-12T13:08:08.898Z,99221.78
2023-03-12T13:10:35.856Z,99217.66
2023-03-12T13:13:22.396Z,99236.75
2023-03-12T13:15:49.911Z,99223.94
2023-03-12T13:18:26.812Z,99283.34
2023-03-12T13:20:53.677Z,99282.75
2023-03-12T13:23:58.692Z,99284.31
2023-03-12T13:27:13.672Z,99247.31
2023-03-12T13:29:42.556Z,99205.34
2023-03-12T13:32:35.399Z,99198.00
2023-03-12T13:35:36.693Z,99237.88
2023-03-12T13:38:12.878Z,99281.59
2023-03-12T13:41:03.272Z,99317.66
2023-03-12T13:43:49.005Z,99327.63
2023-03-12T13:46:15.960Z,99323.38
2023-03-12T13:48:48.115Z,99320.03
2023-03-12T13:51:24.515Z,99337.47
2023-03-12T13:53:57.275Z,99318.75
2023-03-12T13:56:33.512Z,99288.59
2023-03-12T13:59:05.216Z,99316.81
2023-03-12T14:01:39.493Z,99315.81
2023-03-12T14:04:16.232Z,99346.63
2023-03-12T14:07:14.410Z,99398.41
2023-03-12T14:09:44.038Z,99424.00
2023-03-12T14:13:10.390Z,99435.00
2023-03-12T14:16:10.956Z,99374.84
2023-03-12T14:18:39.794Z,99308.94
2023-03-12T14:21:15.182Z,99271.00
2023-03-12T14:23:52.780Z,99263.22
2023-03-12T14:26:25.270Z,99224.44
2023-03-12T14:29:02.365Z,99253.78
2023-03-12T14:31:31.797Z,99275.97
2023-03-12T14:34:16.563Z,99276.88
2023-03-12T14:37:14.862Z,99272.56
2023-03-12T14:39:55.861Z,99260.13
2023-03-12T14:42:28.725Z,99275.13
2023-03-12T14:45:26.023Z,99271.59
2023-03-12T14:47:58.599Z,99289.19
2023-03-12T14:50:38.163Z,99297.06
2023-03-12T14:53:20.329Z,99291.78
2023-03-12T14:55:47.327Z,99301.53
2023-03-12T14:58:20.678Z,99302.50
2023-03-12T15:00:58.729Z,99277.78
2023-03-12T15:03:27.748Z,99289.34
2023-03-12T15:05:56.057Z,99275.06
2023-03-12T15:08:23.844Z,99283.69
2023-03-12T15:10:57.805Z,99227.03
2023-03-12T15:13:27.399Z,99233.38
2023-03-12T15:15:56.130Z,99262.44
2023-03-12T15:18:29.794Z,99247.47
2023-03-12T15:20:59.138Z,99222.59
2023-03-12T15:23:29.395Z,99215.59
2023-03-12T15:26:13.496Z,99142.06
2023-03-12T15:28:40.700Z,99111.16
2023-03-12T15:31:16.892Z,99082.91
2023-03-12T15:33:45.134Z,99004.19
2023-03-12T15:36:15.016Z,99030.81
2023-03-12T15:39:00.259Z,99020.25
2023-03-12T15:41:45.813Z,98969.81
2023-03-12T15:44:29.068Z,98992.09
2023-03-12T15:47:15.743Z,98960.06
2023-03-12T15:49:43.212Z,98979.72
2023-03-12T15:52:18.731Z,98992.22
2023-03-12T15:55:20.965Z,99025.88
2023-03-12T15:57:55.149Z,99036.53
2023-03-12T16:00:29.637Z,99017.00
2023-03-12T16:03:06.365Z,98992.25
2023-03-12T16:05:37.762Z,98971.94
2023-03-12T16:08:30.861Z,98950.78
2023-03-12T16:10:58.076Z,98950.78
2023-03-12T16:13:31.322Z,98949.13
2023-03-12T16:16:00.270Z,98944.59
2023-03-12T16:18:33.106Z,98925.19
2023-03-12T16:21:00.147Z,98909.22
2023-03-12T16:23:27.327Z,98886.41
2023-03-12T16:25:56.487Z,98861.84
2023-03-12T16:28:24.819Z,98845.97
2023-03-12T16:30:54.010Z,98818.63
2023-03-12T16:33:24.063Z,98807.13
2023-03-12T16:35:51.879Z,98792.97
2023-03-12T16:38:19.088Z,98785.22
2023-03-12T16:40:50.139Z,98784.56
2023-03-12T16:43:25.324Z,98801.44
2023-03-12T16:45:54.227Z,98785.44
2023-03-12T16:48:24.598Z,98776.63
2023-03-12T16:50:55.852Z,98784.69
2023-03-12T16:53:23.723Z,98803.47
2023-03-12T16:56:01.341Z,98800.63
2023-03-12T16:58:30.261Z,98782.16
2023-03-12T17:00:58.273Z,98767.13
2023-03-12T17:03:36.034Z,98749.50
2023-03-12T17:06:04.489Z,98746.88
2023-03-12T17:08:31.642Z,98739.38
2023-03-12T17:11:00.121Z,98724.06
2023-03-12T17:13:29.709Z,98742.91
2023-03-12T17:15:57.070Z,98770.19
2023-03-12T17:18:24.427Z,98781.03
2023-03-12T17:20:52.075Z,98786.59
2023-03-12T17:23:20.041Z,98804.50
2023-03-12T17:25:47.272Z,98794.81
2023-03-12T17:28:15.524Z,98780.25
2023-03-12T17:30:44.554Z,98809.47
2023-03-12T17:33:17.278Z,98783.44
2023-03-12T17:35:45.128Z,98804.94
2023-03-12T17:38:13.281Z,98822.56
2023-03-12T17:40:45.047Z,98831.44
2023-03-12T17:43:13.234Z,98839.38
2023-03-12T17:45:40.470Z,98841.50
2023-03-12T17:48:08.020Z,98872.25
2023-03-12T17:50:36.719Z,98867.84
2023-03-12T17:53:04.269Z,98873.09
2023-03-12T17:55:31.578Z,98888.28
2023-03-12T17:57:58.858Z,98901.44
2023-03-12T18:00:26.154Z,98920.94
2023-03-12T18:02:53.199Z,98921.06
2023-03-12T18:05:20.695Z,98936.00
2023-03-12T18:07:48.963Z,98929.00
2023-03-12T18:10:16.266Z,98955.38
2023-03-12T18:12:44.209Z,98939.50
2023-03-12T18:15:14.401Z,98943.97
2023-03-12T18:17:43.236Z,98937.75
2023-03-12T18:20:16.649Z,98936.00
2023-03-12T18:22:46.708Z,98930.91
2023-03-12T18:25:14.250Z,98935.44
2023-03-12T18:27:41.801Z,98933.84
2023-03-12T18:30:12.742Z,98948.25
2023-03-12T18:32:42.517Z,98984.97
2023-03-12T18:35:10.117Z,98979.63
2023-03-12T18:37:37.201Z,98987.53
2023-03-12T18:40:05.768Z,98989.94
2023-03-12T18:42:32.845Z,98990.81
2023-03-12T18:44:59.892Z,98987.09
2023-03-12T18:47:27.681Z,98980.81
2023-03-12T18:49:56.039Z,98942.41
2023-03-12T18:52:23.073Z,98936.91
2023-03-12T18:54:50.087Z,98972.09
2023-03-12T18:57:17.064Z,98979.16
2023-03-12T18:59:46.090Z,98984.59
2023-03-12T19:02:13.371Z,98981.69
2023-03-12T19:04:40.611Z,98984.44
2023-03-12T19:07:08.594Z,98976.41
2023-03-12T19:09:35.600Z,98993.81
2023-03-12T19:12:02.978Z,98977.22
2023-03-12T19:14:30.273Z,98979.84
2023-03-12T19:16:58.134Z,98992.22
2023-03-12T19:19:25.170Z,98993.97
2023-03-12T19:21:52.168Z,98981.38
2023-03-12T19:24:19.362Z,98991.13
2023-03-12T19:26:46.388Z,98983.19
2023-03-12T19:29:15.218Z,99002.75
2023-03-12T19:31:43.280Z,99002.69
2023-03-12T19:34:10.288Z,99004.28
2023-03-12T19:36:37.275Z,98999.88
2023-03-12T19:39:11.985Z,98987.78
2023-03-12T19:41:45.823Z,99009.69
2023-03-12T19:44:12.782Z,98997.06
2023-03-12T19:46:42.956Z,98998.94
2023-03-12T19:49:10.122Z,98988.34
2023-03-12T19:51:40.214Z,98979.75
2023-03-12T19:54:07.762Z,98998.41
2023-03-12T19:56:34.887Z,99017.00
2023-03-12T19:59:01.885Z,99012.47
2023-03-12T20:01:28.901Z,99009.88
2023-03-12T20:03:55.897Z,99019.72
2023-03-12T20:06:22.919Z,99041.53
2023-03-12T20:08:50.029Z,99027.63
2023-03-12T20:11:16.989Z,99038.31
2023-03-12T20:13:43.989Z,99042.44
2023-03-12T20:16:13.288Z,99024.06
2023-03-12T20:18:40.603Z,99032.25
2023-03-12T20:21:07.640Z,99045.13
2023-03-12T20:23:34.828Z,99022.50
2023-03-12T20:26:01.956Z,99033.09
2023-03-12T20:28:28.907Z,99033.91
2023-03-12T20:30:55.940Z,99032.31
2023-03-12T20:33:22.938Z,99032.00
2023-03-12T20:35:50.513Z,99024.22
2023-03-12T20:38:17.597Z,99012.97
2023-03-12T20:40:47.670Z,99043.69
2023-03-12T20:43:14.680Z,99039.53
2023-03-12T20:45:41.785Z,99033.38
2023-03-12T20:48:10.413Z,99046.59
2023-03-12T20:50:39.222Z,99039.47
2023-03-12T20:53:07.351Z,99036.16
2023-03-12T20:55:34.371Z,99045.84
2023-03-12T20:58:01.333Z,99038.78
2023-03-12T21:00:28.384Z,99036.63
2023-03-12T21:02:55.566Z,99004.13
2023-03-12T21:05:25.003Z,99003.31
2023-03-12T21:07:54.015Z,99005.03
2023-03-12T21:10:21.645Z,98994.56
2023-03-12T21:12:48.592Z,98995.56
2023-03-12T21:15:15.856Z,98994.72
2023-03-12T21:17:42.860Z,98982.47
2023-03-12T21:20:14.407Z,98992.31
2023-03-12T21:22:43.482Z,99007.44
2023-03-12T21:25:11.750Z,99007.63
2023-03-12T21:27:49.772Z,99023.59
2023-03-12T21:30:18.240Z,99020.50
2023-03-12T21:32:45.374Z,99008.16
2023-03-12T21:35:12.555Z,98998.44
2023-03-12T21:37:39.858Z,99001.97
2023-03-12T21:40:09.130Z,99006.16
2023-03-12T21:42:36.227Z,98990.63
2023-03-12T21:45:03.751Z,98964.94
2023-03-12T21:47:30.943Z,98943.97
2023-03-12T21:49:57.994Z,98938.09
2023-03-12T21:52:25.237Z,98921.00
2023-03-12T21:54:52.379Z,98894.94
2023-03-12T21:57:19.399Z,98888.00
2023-03-12T21:59:46.516Z,98894.28
2023-03-12T22:02:15.295Z,98904.03
2023-03-12T22:04:42.492Z,98896.88
2023-03-12T22:07:09.602Z,98897.44
2023-03-12T22:09:36.656Z,98914.53
2023-03-12T22:12:04.209Z,98919.25
2023-03-12T22:14:31.233Z,98933.56
2023-03-12T22:16:58.277Z,98945.97
2023-03-12T22:19:25.485Z,98960.88
2023-03-12T22:21:52.565Z,98970.63
2023-03-12T22:24:19.631Z,98980.28
2023-03-12T22:26:47.243Z,98995.09
2023-03-12T22:29:14.320Z,98985.56
2023-03-12T22:31:41.435Z,99015.09
2023-03-12T22:34:09.093Z,98997.44
2023-03-12T22:36:38.724Z,98991.59
2023-03-12T22:39:05.970Z,98966.03
2023-03-12T22:41:33.372Z,98956.09
2023-03-12T22:44:07.307Z,98934.84
2023-03-12T22:46:35.244Z,98916.31
2023-03-12T22:49:04.331Z,98902.22
2023-03-12T22:51:33.228Z,98907.69
2023-03-12T22:54:00.782Z,98899.09
2023-03-12T22:56:30.471Z,98894.66
2023-03-12T22:58:57.602Z,98882.81
2023-03-12T23:01:25.209Z,98869.97
2023-03-12T23:03:53.341Z,98883.16
2023-03-12T23:06:26.413Z,98884.63
2023-03-12T23:08:57.012Z,98902.59
2023-03-12T23:11:26.295Z,98923.28
2023-03-12T23:13:54.378Z,98910.72
2023-03-12T23:16:25.325Z,98907.06
2023-03-12T23:18:53.287Z,98939.03
2023-03-12T23:21:23.187Z,98976.41
2023-03-12T23:23:50.964Z,98944.56
2023-03-12T23:26:26.720Z,98949.50
2023-03-12T23:28:58.977Z,98972.59
2023-03-12T23:31:28.139Z,98990.22
2023-03-12T23:33:56.787Z,98993.69
2023-03-12T23:36:24.390Z,99004.28
2023-03-12T23:38:51.725Z,99008.34
2023-03-12T23:41:25.223Z,98986.69
2023-03-12T23:43:53.330Z,98968.63
2023-03-12T23:46:20.750Z,98942.50
2023-03-12T23:48:48.148Z,98921.44
2023-03-12T23:51:21.682Z,98903.75
2023-03-12T23:53:51.632Z,98887.09
2023-03-12T23:56:22.510Z,98892.59
2023-03-12T23:58:51.117Z,98894.16
